Webcam Flughafen St.Gallen-Altenrhein

Live-Bilder und Zeitraffer LSZR / ACH.

 

Live aus Altenrhein
LIVE
LSZR 300750Z 28005KT CAVOK 21/19 Q1013 NOSIG RMK D
Zeitraffer heute
2021-07-30 00:14:58
LSZR 292150Z AUTO VRB02KT 9999 FEW100 18/18 Q1014